sensor_id;sensor_type;location;lat;lon;timestamp;temperature;humidity
22081;DHT22;11207;59.512;18.050;2023-12-20T00:02:17;0.30;99.90
22081;DHT22;11207;59.512;18.050;2023-12-20T00:04:42;0.30;99.90
22081;DHT22;11207;59.512;18.050;2023-12-20T00:07:08;0.30;99.90
22081;DHT22;11207;59.512;18.050;2023-12-20T00:09:34;0.30;99.90
22081;DHT22;11207;59.512;18.050;2023-12-20T00:11:59;0.30;99.90
22081;DHT22;11207;59.512;18.050;2023-12-20T00:14:25;0.20;99.90
22081;DHT22;11207;59.512;18.050;2023-12-20T00:16:50;0.20;99.90
22081;DHT22;11207;59.512;18.050;2023-12-20T00:19:16;0.20;99.90
22081;DHT22;11207;59.512;18.050;2023-12-20T00:21:41;0.20;99.90
22081;DHT22;11207;59.512;18.050;2023-12-20T00:24:07;0.20;99.90
22081;DHT22;11207;59.512;18.050;2023-12-20T00:26:33;0.20;99.90
22081;DHT22;11207;59.512;18.050;2023-12-20T00:28:59;0.20;99.90
22081;DHT22;11207;59.512;18.050;2023-12-20T00:31:25;0.10;99.90
22081;DHT22;11207;59.512;18.050;2023-12-20T00:33:51;0.10;99.90
22081;DHT22;11207;59.512;18.050;2023-12-20T00:36:16;0.10;99.90
22081;DHT22;11207;59.512;18.050;2023-12-20T00:38:42;0.10;99.90
22081;DHT22;11207;59.512;18.050;2023-12-20T00:41:07;0.00;99.90
22081;DHT22;11207;59.512;18.050;2023-12-20T00:43:33;0.00;99.90
22081;DHT22;11207;59.512;18.050;2023-12-20T00:45:59;0.00;99.90
22081;DHT22;11207;59.512;18.050;2023-12-20T00:48:25;0.00;99.90
22081;DHT22;11207;59.512;18.050;2023-12-20T00:50:52;-0.10;99.90
22081;DHT22;11207;59.512;18.050;2023-12-20T00:53:18;-0.10;99.90
22081;DHT22;11207;59.512;18.050;2023-12-20T00:55:44;-0.10;99.90
22081;DHT22;11207;59.512;18.050;2023-12-20T00:58:10;-0.20;99.90
22081;DHT22;11207;59.512;18.050;2023-12-20T01:00:36;-0.20;99.90
22081;DHT22;11207;59.512;18.050;2023-12-20T01:03:01;-0.20;99.90
22081;DHT22;11207;59.512;18.050;2023-12-20T01:05:27;-0.20;99.90
22081;DHT22;11207;59.512;18.050;2023-12-20T01:07:52;-0.20;99.90
22081;DHT22;11207;59.512;18.050;2023-12-20T01:10:18;-0.20;99.90
22081;DHT22;11207;59.512;18.050;2023-12-20T01:12:44;-0.20;99.90
22081;DHT22;11207;59.512;18.050;2023-12-20T01:15:10;-0.20;99.90
22081;DHT22;11207;59.512;18.050;2023-12-20T01:17:36;-0.20;99.90
22081;DHT22;11207;59.512;18.050;2023-12-20T01:20:02;-0.20;99.90
22081;DHT22;11207;59.512;18.050;2023-12-20T01:22:27;-0.20;99.90
22081;DHT22;11207;59.512;18.050;2023-12-20T01:24:53;-0.20;99.90
22081;DHT22;11207;59.512;18.050;2023-12-20T01:27:18;-0.20;99.90
22081;DHT22;11207;59.512;18.050;2023-12-20T01:29:44;-0.20;99.90
22081;DHT22;11207;59.512;18.050;2023-12-20T01:32:10;-0.20;99.90
22081;DHT22;11207;59.512;18.050;2023-12-20T01:34:35;-0.20;99.90
22081;DHT22;11207;59.512;18.050;2023-12-20T01:37:01;-0.20;99.90
22081;DHT22;11207;59.512;18.050;2023-12-20T01:39:28;-0.20;99.90
22081;DHT22;11207;59.512;18.050;2023-12-20T01:41:53;-0.30;99.90
22081;DHT22;11207;59.512;18.050;2023-12-20T01:44:19;-0.30;99.90
22081;DHT22;11207;59.512;18.050;2023-12-20T01:46:45;-0.30;99.90
22081;DHT22;11207;59.512;18.050;2023-12-20T01:49:11;-0.30;99.90
22081;DHT22;11207;59.512;18.050;2023-12-20T01:51:37;-0.30;99.90
22081;DHT22;11207;59.512;18.050;2023-12-20T01:54:03;-0.30;99.90
22081;DHT22;11207;59.512;18.050;2023-12-20T01:56:30;-0.30;99.90
22081;DHT22;11207;59.512;18.050;2023-12-20T01:58:56;-0.30;99.90
22081;DHT22;11207;59.512;18.050;2023-12-20T02:01:22;-0.30;99.90
22081;DHT22;11207;59.512;18.050;2023-12-20T02:03:48;-0.40;99.90
22081;DHT22;11207;59.512;18.050;2023-12-20T02:06:14;-0.40;99.90
22081;DHT22;11207;59.512;18.050;2023-12-20T02:08:41;-0.50;99.90
22081;DHT22;11207;59.512;18.050;2023-12-20T02:11:06;-0.50;99.90
22081;DHT22;11207;59.512;18.050;2023-12-20T02:13:33;-0.40;99.90
22081;DHT22;11207;59.512;18.050;2023-12-20T02:15:58;-0.50;99.90
22081;DHT22;11207;59.512;18.050;2023-12-20T02:18:24;-0.40;99.90
22081;DHT22;11207;59.512;18.050;2023-12-20T02:20:50;-0.50;99.90
22081;DHT22;11207;59.512;18.050;2023-12-20T02:23:15;-0.50;99.90
22081;DHT22;11207;59.512;18.050;2023-12-20T02:25:41;-0.50;99.90
22081;DHT22;11207;59.512;18.050;2023-12-20T02:28:06;-0.40;99.90
22081;DHT22;11207;59.512;18.050;2023-12-20T02:30:32;-0.50;99.90
22081;DHT22;11207;59.512;18.050;2023-12-20T02:32:59;-0.50;99.90
22081;DHT22;11207;59.512;18.050;2023-12-20T02:35:25;-0.40;99.90
22081;DHT22;11207;59.512;18.050;2023-12-20T02:37:51;-0.40;99.90
22081;DHT22;11207;59.512;18.050;2023-12-20T02:40:16;-0.40;99.90
22081;DHT22;11207;59.512;18.050;2023-12-20T02:42:42;-0.40;99.90
22081;DHT22;11207;59.512;18.050;2023-12-20T02:45:08;-0.50;99.90
22081;DHT22;11207;59.512;18.050;2023-12-20T02:47:33;-0.50;99.90
22081;DHT22;11207;59.512;18.050;2023-12-20T02:49:59;-0.40;99.90
22081;DHT22;11207;59.512;18.050;2023-12-20T02:52:25;-0.50;99.90
22081;DHT22;11207;59.512;18.050;2023-12-20T02:54:50;-0.50;99.90
22081;DHT22;11207;59.512;18.050;2023-12-20T02:57:16;-0.50;99.90
22081;DHT22;11207;59.512;18.050;2023-12-20T02:59:42;-0.60;99.90
22081;DHT22;11207;59.512;18.050;2023-12-20T03:02:07;-0.60;99.90
22081;DHT22;11207;59.512;18.050;2023-12-20T03:04:33;-0.60;99.90
22081;DHT22;11207;59.512;18.050;2023-12-20T03:06:58;-0.60;99.90
22081;DHT22;11207;59.512;18.050;2023-12-20T03:09:24;-0.60;99.90
22081;DHT22;11207;59.512;18.050;2023-12-20T03:11:50;-0.60;99.90
22081;DHT22;11207;59.512;18.050;2023-12-20T03:14:15;-0.60;99.90
22081;DHT22;11207;59.512;18.050;2023-12-20T03:16:41;-0.50;99.90
22081;DHT22;11207;59.512;18.050;2023-12-20T03:19:06;-0.60;99.90
22081;DHT22;11207;59.512;18.050;2023-12-20T03:21:32;-0.70;99.90
22081;DHT22;11207;59.512;18.050;2023-12-20T03:23:58;-0.80;99.90
22081;DHT22;11207;59.512;18.050;2023-12-20T03:26:23;-0.80;99.90
22081;DHT22;11207;59.512;18.050;2023-12-20T03:28:49;-0.90;99.90
22081;DHT22;11207;59.512;18.050;2023-12-20T03:31:14;-0.90;99.90
22081;DHT22;11207;59.512;18.050;2023-12-20T03:33:40;-0.80;99.90
22081;DHT22;11207;59.512;18.050;2023-12-20T03:36:06;-0.80;99.90
22081;DHT22;11207;59.512;18.050;2023-12-20T03:38:32;-0.80;99.90
22081;DHT22;11207;59.512;18.050;2023-12-20T03:40:58;-0.80;99.90
22081;DHT22;11207;59.512;18.050;2023-12-20T03:43:24;-0.70;99.90
22081;DHT22;11207;59.512;18.050;2023-12-20T03:45:49;-0.80;99.90
22081;DHT22;11207;59.512;18.050;2023-12-20T03:48:15;-0.70;99.90
22081;DHT22;11207;59.512;18.050;2023-12-20T03:50:40;-0.70;99.90
22081;DHT22;11207;59.512;18.050;2023-12-20T03:53:06;-0.70;99.90
22081;DHT22;11207;59.512;18.050;2023-12-20T03:55:32;-0.70;99.90
22081;DHT22;11207;59.512;18.050;2023-12-20T03:57:57;-0.70;99.90
22081;DHT22;11207;59.512;18.050;2023-12-20T04:00:23;-0.70;99.90
22081;DHT22;11207;59.512;18.050;2023-12-20T04:02:48;-0.70;99.90
22081;DHT22;11207;59.512;18.050;2023-12-20T04:05:14;-0.70;99.90
22081;DHT22;11207;59.512;18.050;2023-12-20T04:07:39;-0.70;99.90
22081;DHT22;11207;59.512;18.050;2023-12-20T04:10:05;-0.70;99.90
22081;DHT22;11207;59.512;18.050;2023-12-20T04:12:32;-0.70;99.90
22081;DHT22;11207;59.512;18.050;2023-12-20T04:14:57;-0.70;99.90
22081;DHT22;11207;59.512;18.050;2023-12-20T04:17:23;-0.70;99.90
22081;DHT22;11207;59.512;18.050;2023-12-20T04:19:49;-0.70;99.90
22081;DHT22;11207;59.512;18.050;2023-12-20T04:22:16;-0.70;99.90
22081;DHT22;11207;59.512;18.050;2023-12-20T04:24:42;-0.80;99.90
22081;DHT22;11207;59.512;18.050;2023-12-20T04:27:08;-0.90;99.90
22081;DHT22;11207;59.512;18.050;2023-12-20T04:29:33;-0.80;99.90
22081;DHT22;11207;59.512;18.050;2023-12-20T04:31:59;-0.80;99.90
22081;DHT22;11207;59.512;18.050;2023-12-20T04:34:25;-0.70;99.90
22081;DHT22;11207;59.512;18.050;2023-12-20T04:36:51;-0.60;99.90
22081;DHT22;11207;59.512;18.050;2023-12-20T04:39:17;-0.60;99.90
22081;DHT22;11207;59.512;18.050;2023-12-20T04:41:43;-0.60;99.90
22081;DHT22;11207;59.512;18.050;2023-12-20T04:44:08;-0.50;99.90
22081;DHT22;11207;59.512;18.050;2023-12-20T04:46:34;-0.50;99.90
22081;DHT22;11207;59.512;18.050;2023-12-20T04:48:59;-0.50;99.90
22081;DHT22;11207;59.512;18.050;2023-12-20T04:51:25;-0.50;99.90
22081;DHT22;11207;59.512;18.050;2023-12-20T04:53:51;-0.50;99.90
22081;DHT22;11207;59.512;18.050;2023-12-20T04:56:16;-0.40;99.90
22081;DHT22;11207;59.512;18.050;2023-12-20T04:58:42;-0.40;99.90
22081;DHT22;11207;59.512;18.050;2023-12-20T05:01:09;-0.40;99.90
22081;DHT22;11207;59.512;18.050;2023-12-20T05:03:35;-0.40;99.90
22081;DHT22;11207;59.512;18.050;2023-12-20T05:06:00;-0.40;99.90
22081;DHT22;11207;59.512;18.050;2023-12-20T05:08:26;-0.40;99.90
22081;DHT22;11207;59.512;18.050;2023-12-20T05:10:54;-0.40;99.90
22081;DHT22;11207;59.512;18.050;2023-12-20T05:13:20;-0.40;99.90
22081;DHT22;11207;59.512;18.050;2023-12-20T05:15:45;-0.40;99.90
22081;DHT22;11207;59.512;18.050;2023-12-20T05:18:11;-0.40;99.90
22081;DHT22;11207;59.512;18.050;2023-12-20T05:20:36;-0.20;99.90
22081;DHT22;11207;59.512;18.050;2023-12-20T05:23:03;-0.30;99.90
22081;DHT22;11207;59.512;18.050;2023-12-20T05:25:28;-0.30;99.90
22081;DHT22;11207;59.512;18.050;2023-12-20T05:27:54;-0.30;99.90
22081;DHT22;11207;59.512;18.050;2023-12-20T05:30:19;-0.30;99.90
22081;DHT22;11207;59.512;18.050;2023-12-20T05:32:45;-0.30;99.90
22081;DHT22;11207;59.512;18.050;2023-12-20T05:35:11;-0.30;99.90
22081;DHT22;11207;59.512;18.050;2023-12-20T05:37:36;-0.20;99.90
22081;DHT22;11207;59.512;18.050;2023-12-20T05:40:02;-0.30;99.90
22081;DHT22;11207;59.512;18.050;2023-12-20T05:42:29;-0.30;99.90
22081;DHT22;11207;59.512;18.050;2023-12-20T05:44:54;-0.30;99.90
22081;DHT22;11207;59.512;18.050;2023-12-20T05:47:20;-0.30;99.90
22081;DHT22;11207;59.512;18.050;2023-12-20T05:49:46;-0.30;99.90
22081;DHT22;11207;59.512;18.050;2023-12-20T05:52:11;-0.30;99.90
22081;DHT22;11207;59.512;18.050;2023-12-20T05:54:37;-0.30;99.90
22081;DHT22;11207;59.512;18.050;2023-12-20T05:57:02;-0.30;99.90
22081;DHT22;11207;59.512;18.050;2023-12-20T05:59:28;-0.30;99.90
22081;DHT22;11207;59.512;18.050;2023-12-20T06:01:54;-0.30;99.90
22081;DHT22;11207;59.512;18.050;2023-12-20T06:04:19;-0.30;99.90
22081;DHT22;11207;59.512;18.050;2023-12-20T06:06:45;-0.30;99.90
22081;DHT22;11207;59.512;18.050;2023-12-20T06:09:11;-0.30;99.90
22081;DHT22;11207;59.512;18.050;2023-12-20T06:11:37;-0.30;99.90
22081;DHT22;11207;59.512;18.050;2023-12-20T06:14:03;-0.20;99.90
22081;DHT22;11207;59.512;18.050;2023-12-20T06:16:28;-0.30;99.90
22081;DHT22;11207;59.512;18.050;2023-12-20T06:18:54;-0.30;99.90
22081;DHT22;11207;59.512;18.050;2023-12-20T06:21:20;-0.20;99.90
22081;DHT22;11207;59.512;18.050;2023-12-20T06:23:45;-0.20;99.90
22081;DHT22;11207;59.512;18.050;2023-12-20T06:26:11;-0.20;99.90
22081;DHT22;11207;59.512;18.050;2023-12-20T06:28:36;-0.20;99.90
22081;DHT22;11207;59.512;18.050;2023-12-20T06:31:02;-0.20;99.90
22081;DHT22;11207;59.512;18.050;2023-12-20T06:33:28;-0.20;99.90
22081;DHT22;11207;59.512;18.050;2023-12-20T06:35:56;-0.20;99.90
22081;DHT22;11207;59.512;18.050;2023-12-20T06:38:21;-0.20;99.90
22081;DHT22;11207;59.512;18.050;2023-12-20T06:40:47;-0.20;99.90
22081;DHT22;11207;59.512;18.050;2023-12-20T06:43:13;-0.20;99.90
22081;DHT22;11207;59.512;18.050;2023-12-20T06:45:39;-0.10;99.90
22081;DHT22;11207;59.512;18.050;2023-12-20T06:48:05;-0.10;99.90
22081;DHT22;11207;59.512;18.050;2023-12-20T06:50:31;-0.10;99.90
22081;DHT22;11207;59.512;18.050;2023-12-20T06:52:56;-0.10;99.90
22081;DHT22;11207;59.512;18.050;2023-12-20T06:55:22;-0.10;99.90
22081;DHT22;11207;59.512;18.050;2023-12-20T06:57:48;-0.10;99.90
22081;DHT22;11207;59.512;18.050;2023-12-20T07:00:14;-0.10;99.90
22081;DHT22;11207;59.512;18.050;2023-12-20T07:02:40;-0.10;99.90
22081;DHT22;11207;59.512;18.050;2023-12-20T07:05:06;-0.10;99.90
22081;DHT22;11207;59.512;18.050;2023-12-20T07:07:32;-0.10;99.90
22081;DHT22;11207;59.512;18.050;2023-12-20T07:09:57;0.00;99.90
22081;DHT22;11207;59.512;18.050;2023-12-20T07:12:23;-0.10;99.90
22081;DHT22;11207;59.512;18.050;2023-12-20T07:14:48;-0.10;99.90
22081;DHT22;11207;59.512;18.050;2023-12-20T07:17:14;0.00;99.90
22081;DHT22;11207;59.512;18.050;2023-12-20T07:19:41;-0.10;99.90
22081;DHT22;11207;59.512;18.050;2023-12-20T07:22:08;0.00;99.90
22081;DHT22;11207;59.512;18.050;2023-12-20T07:24:34;-0.10;99.90
22081;DHT22;11207;59.512;18.050;2023-12-20T07:27:00;0.00;99.90
22081;DHT22;11207;59.512;18.050;2023-12-20T07:29:26;0.00;99.90
22081;DHT22;11207;59.512;18.050;2023-12-20T07:31:53;0.00;99.90
22081;DHT22;11207;59.512;18.050;2023-12-20T07:34:20;0.00;99.90
22081;DHT22;11207;59.512;18.050;2023-12-20T07:36:45;0.00;99.90
22081;DHT22;11207;59.512;18.050;2023-12-20T07:39:11;0.00;99.90
22081;DHT22;11207;59.512;18.050;2023-12-20T07:41:36;0.10;99.90
22081;DHT22;11207;59.512;18.050;2023-12-20T07:44:03;0.10;99.90
22081;DHT22;11207;59.512;18.050;2023-12-20T07:46:29;0.10;99.90
22081;DHT22;11207;59.512;18.050;2023-12-20T07:48:54;0.10;99.90
22081;DHT22;11207;59.512;18.050;2023-12-20T07:51:20;0.20;99.90
22081;DHT22;11207;59.512;18.050;2023-12-20T07:53:46;0.20;99.90
22081;DHT22;11207;59.512;18.050;2023-12-20T07:56:19;0.20;99.90
22081;DHT22;11207;59.512;18.050;2023-12-20T07:58:45;0.20;99.90
22081;DHT22;11207;59.512;18.050;2023-12-20T08:01:11;0.30;99.90
22081;DHT22;11207;59.512;18.050;2023-12-20T08:03:38;0.30;99.90
22081;DHT22;11207;59.512;18.050;2023-12-20T08:06:04;0.30;99.90
22081;DHT22;11207;59.512;18.050;2023-12-20T08:08:30;0.30;99.90
22081;DHT22;11207;59.512;18.050;2023-12-20T08:10:56;0.30;99.90
22081;DHT22;11207;59.512;18.050;2023-12-20T08:13:24;0.30;99.90
22081;DHT22;11207;59.512;18.050;2023-12-20T08:15:52;0.30;99.90
22081;DHT22;11207;59.512;18.050;2023-12-20T08:18:17;0.40;99.90
22081;DHT22;11207;59.512;18.050;2023-12-20T08:20:43;0.40;99.90
22081;DHT22;11207;59.512;18.050;2023-12-20T08:23:08;0.40;99.90
22081;DHT22;11207;59.512;18.050;2023-12-20T08:25:34;0.40;99.90
22081;DHT22;11207;59.512;18.050;2023-12-20T08:28:02;0.40;99.90
22081;DHT22;11207;59.512;18.050;2023-12-20T08:30:28;0.40;99.90
22081;DHT22;11207;59.512;18.050;2023-12-20T08:32:55;0.40;99.90
22081;DHT22;11207;59.512;18.050;2023-12-20T08:35:20;0.40;99.90
22081;DHT22;11207;59.512;18.050;2023-12-20T08:37:46;0.50;99.90
22081;DHT22;11207;59.512;18.050;2023-12-20T08:40:12;0.50;99.90
22081;DHT22;11207;59.512;18.050;2023-12-20T08:42:37;0.50;99.90
22081;DHT22;11207;59.512;18.050;2023-12-20T08:45:03;0.50;99.90
22081;DHT22;11207;59.512;18.050;2023-12-20T08:47:29;0.50;99.90
22081;DHT22;11207;59.512;18.050;2023-12-20T08:49:55;0.50;99.90
22081;DHT22;11207;59.512;18.050;2023-12-20T08:52:22;0.60;99.90
22081;DHT22;11207;59.512;18.050;2023-12-20T08:54:52;0.60;99.90
22081;DHT22;11207;59.512;18.050;2023-12-20T08:57:20;0.60;99.90
22081;DHT22;11207;59.512;18.050;2023-12-20T08:59:47;0.60;99.90
22081;DHT22;11207;59.512;18.050;2023-12-20T09:02:13;0.60;99.90
22081;DHT22;11207;59.512;18.050;2023-12-20T09:04:39;0.60;99.90
22081;DHT22;11207;59.512;18.050;2023-12-20T09:07:05;0.70;99.90
22081;DHT22;11207;59.512;18.050;2023-12-20T09:09:31;0.70;99.90
22081;DHT22;11207;59.512;18.050;2023-12-20T09:11:57;0.70;99.90
22081;DHT22;11207;59.512;18.050;2023-12-20T09:14:23;0.80;99.90
22081;DHT22;11207;59.512;18.050;2023-12-20T09:16:49;0.80;99.90
22081;DHT22;11207;59.512;18.050;2023-12-20T09:19:17;0.80;99.90
22081;DHT22;11207;59.512;18.050;2023-12-20T09:21:43;0.80;99.90
22081;DHT22;11207;59.512;18.050;2023-12-20T09:24:08;0.80;99.90
22081;DHT22;11207;59.512;18.050;2023-12-20T09:26:34;0.80;99.90
22081;DHT22;11207;59.512;18.050;2023-12-20T09:29:00;0.80;99.90
22081;DHT22;11207;59.512;18.050;2023-12-20T09:31:25;0.80;99.90
22081;DHT22;11207;59.512;18.050;2023-12-20T09:33:51;0.80;99.90
22081;DHT22;11207;59.512;18.050;2023-12-20T09:36:17;0.90;99.90
22081;DHT22;11207;59.512;18.050;2023-12-20T09:38:42;0.90;99.90
22081;DHT22;11207;59.512;18.050;2023-12-20T09:41:08;0.90;99.90
22081;DHT22;11207;59.512;18.050;2023-12-20T09:43:37;0.90;99.90
22081;DHT22;11207;59.512;18.050;2023-12-20T09:46:05;1.00;99.90
22081;DHT22;11207;59.512;18.050;2023-12-20T09:48:32;1.00;99.90
22081;DHT22;11207;59.512;18.050;2023-12-20T09:50:58;0.90;99.90
22081;DHT22;11207;59.512;18.050;2023-12-20T09:53:25;0.90;99.90
22081;DHT22;11207;59.512;18.050;2023-12-20T09:55:58;1.00;99.90
22081;DHT22;11207;59.512;18.050;2023-12-20T09:58:25;1.00;99.90
22081;DHT22;11207;59.512;18.050;2023-12-20T10:00:51;1.00;99.90
22081;DHT22;11207;59.512;18.050;2023-12-20T10:03:23;1.00;99.90
22081;DHT22;11207;59.512;18.050;2023-12-20T10:05:52;1.00;99.90
22081;DHT22;11207;59.512;18.050;2023-12-20T10:08:21;1.10;99.90
22081;DHT22;11207;59.512;18.050;2023-12-20T10:10:47;1.10;99.90
22081;DHT22;11207;59.512;18.050;2023-12-20T10:13:13;1.10;99.90
22081;DHT22;11207;59.512;18.050;2023-12-20T10:15:39;1.10;99.90
22081;DHT22;11207;59.512;18.050;2023-12-20T10:18:06;1.20;99.90
22081;DHT22;11207;59.512;18.050;2023-12-20T10:20:32;1.20;99.90
22081;DHT22;11207;59.512;18.050;2023-12-20T10:22:59;1.20;99.90
22081;DHT22;11207;59.512;18.050;2023-12-20T10:25:25;1.10;99.90
22081;DHT22;11207;59.512;18.050;2023-12-20T10:28:17;1.10;99.90
22081;DHT22;11207;59.512;18.050;2023-12-20T10:30:48;1.30;99.90
22081;DHT22;11207;59.512;18.050;2023-12-20T10:33:26;1.20;99.90
22081;DHT22;11207;59.512;18.050;2023-12-20T10:35:53;1.30;99.90
22081;DHT22;11207;59.512;18.050;2023-12-20T10:38:19;1.40;99.90
22081;DHT22;11207;59.512;18.050;2023-12-20T10:40:48;1.40;99.90
22081;DHT22;11207;59.512;18.050;2023-12-20T10:43:15;1.40;99.90
22081;DHT22;11207;59.512;18.050;2023-12-20T10:45:42;1.30;99.90
22081;DHT22;11207;59.512;18.050;2023-12-20T10:48:10;1.30;99.90
22081;DHT22;11207;59.512;18.050;2023-12-20T10:50:37;1.40;99.90
22081;DHT22;11207;59.512;18.050;2023-12-20T10:53:07;1.30;99.90
22081;DHT22;11207;59.512;18.050;2023-12-20T10:55:33;1.30;99.90
22081;DHT22;11207;59.512;18.050;2023-12-20T10:58:07;1.30;99.90
22081;DHT22;11207;59.512;18.050;2023-12-20T11:00:41;1.30;99.90
22081;DHT22;11207;59.512;18.050;2023-12-20T11:03:09;1.40;99.90
22081;DHT22;11207;59.512;18.050;2023-12-20T11:05:38;1.40;99.90
22081;DHT22;11207;59.512;18.050;2023-12-20T11:10:58;1.40;99.90
22081;DHT22;11207;59.512;18.050;2023-12-20T11:13:35;1.30;99.90
22081;DHT22;11207;59.512;18.050;2023-12-20T11:16:03;1.30;99.90
22081;DHT22;11207;59.512;18.050;2023-12-20T11:18:30;1.40;99.90
22081;DHT22;11207;59.512;18.050;2023-12-20T11:21:06;1.30;99.90
22081;DHT22;11207;59.512;18.050;2023-12-20T11:23:32;1.40;99.90
22081;DHT22;11207;59.512;18.050;2023-12-20T11:26:00;1.40;99.90
22081;DHT22;11207;59.512;18.050;2023-12-20T11:28:27;1.50;99.90
22081;DHT22;11207;59.512;18.050;2023-12-20T11:30:57;1.50;99.90
22081;DHT22;11207;59.512;18.050;2023-12-20T11:33:38;1.40;99.90
22081;DHT22;11207;59.512;18.050;2023-12-20T11:36:13;1.50;99.90
22081;DHT22;11207;59.512;18.050;2023-12-20T11:38:39;1.40;99.90
22081;DHT22;11207;59.512;18.050;2023-12-20T11:41:15;1.40;99.90
22081;DHT22;11207;59.512;18.050;2023-12-20T11:43:41;1.40;99.90
22081;DHT22;11207;59.512;18.050;2023-12-20T11:46:08;1.40;99.90
22081;DHT22;11207;59.512;18.050;2023-12-20T11:48:38;1.40;99.90
22081;DHT22;11207;59.512;18.050;2023-12-20T11:51:09;1.40;99.90
22081;DHT22;11207;59.512;18.050;2023-12-20T11:53:35;1.40;99.90
22081;DHT22;11207;59.512;18.050;2023-12-20T11:56:03;1.40;99.90
22081;DHT22;11207;59.512;18.050;2023-12-20T11:58:29;1.40;99.90
22081;DHT22;11207;59.512;18.050;2023-12-20T12:00:55;1.50;99.90
22081;DHT22;11207;59.512;18.050;2023-12-20T12:03:21;1.50;99.90
22081;DHT22;11207;59.512;18.050;2023-12-20T12:05:50;1.50;99.90
22081;DHT22;11207;59.512;18.050;2023-12-20T12:08:16;1.50;99.90
22081;DHT22;11207;59.512;18.050;2023-12-20T12:10:43;1.50;99.90
22081;DHT22;11207;59.512;18.050;2023-12-20T12:13:09;1.50;99.90
22081;DHT22;11207;59.512;18.050;2023-12-20T12:15:36;1.60;99.90
22081;DHT22;11207;59.512;18.050;2023-12-20T12:18:02;1.50;99.90
22081;DHT22;11207;59.512;18.050;2023-12-20T12:20:28;1.40;99.90
22081;DHT22;11207;59.512;18.050;2023-12-20T12:23:03;1.40;99.90
22081;DHT22;11207;59.512;18.050;2023-12-20T12:25:30;1.40;99.90
22081;DHT22;11207;59.512;18.050;2023-12-20T12:27:57;1.40;99.90
22081;DHT22;11207;59.512;18.050;2023-12-20T12:30:24;1.40;99.90
22081;DHT22;11207;59.512;18.050;2023-12-20T12:32:51;1.40;99.90
22081;DHT22;11207;59.512;18.050;2023-12-20T12:35:17;1.40;99.90
22081;DHT22;11207;59.512;18.050;2023-12-20T12:37:43;1.50;99.90
22081;DHT22;11207;59.512;18.050;2023-12-20T12:40:13;1.40;99.90
22081;DHT22;11207;59.512;18.050;2023-12-20T12:42:41;1.40;99.90
22081;DHT22;11207;59.512;18.050;2023-12-20T12:45:07;1.50;99.90
22081;DHT22;11207;59.512;18.050;2023-12-20T12:47:36;1.50;99.90
22081;DHT22;11207;59.512;18.050;2023-12-20T12:50:02;1.50;99.90
22081;DHT22;11207;59.512;18.050;2023-12-20T12:52:28;1.50;99.90
22081;DHT22;11207;59.512;18.050;2023-12-20T12:54:54;1.40;99.90
22081;DHT22;11207;59.512;18.050;2023-12-20T12:57:20;1.40;99.90
22081;DHT22;11207;59.512;18.050;2023-12-20T12:59:46;1.50;99.90
22081;DHT22;11207;59.512;18.050;2023-12-20T13:02:15;1.40;99.90
22081;DHT22;11207;59.512;18.050;2023-12-20T13:04:43;1.40;99.90
22081;DHT22;11207;59.512;18.050;2023-12-20T13:07:09;1.40;99.90
22081;DHT22;11207;59.512;18.050;2023-12-20T13:09:38;1.40;99.90
22081;DHT22;11207;59.512;18.050;2023-12-20T13:12:05;1.40;99.90
22081;DHT22;11207;59.512;18.050;2023-12-20T13:14:35;1.40;99.90
22081;DHT22;11207;59.512;18.050;2023-12-20T13:17:03;1.40;99.90
22081;DHT22;11207;59.512;18.050;2023-12-20T13:19:29;1.40;99.90
22081;DHT22;11207;59.512;18.050;2023-12-20T13:21:56;1.40;99.90
22081;DHT22;11207;59.512;18.050;2023-12-20T13:24:21;1.50;99.90
22081;DHT22;11207;59.512;18.050;2023-12-20T13:26:47;1.40;99.90
22081;DHT22;11207;59.512;18.050;2023-12-20T13:29:13;1.40;99.90
22081;DHT22;11207;59.512;18.050;2023-12-20T13:31:38;1.40;99.90
22081;DHT22;11207;59.512;18.050;2023-12-20T13:34:05;1.40;99.90
22081;DHT22;11207;59.512;18.050;2023-12-20T13:36:34;1.30;99.90
22081;DHT22;11207;59.512;18.050;2023-12-20T13:39:02;1.40;99.90
22081;DHT22;11207;59.512;18.050;2023-12-20T13:41:29;1.40;99.90
22081;DHT22;11207;59.512;18.050;2023-12-20T13:43:55;1.40;99.90
22081;DHT22;11207;59.512;18.050;2023-12-20T13:46:21;1.30;99.90
22081;DHT22;11207;59.512;18.050;2023-12-20T13:48:47;1.40;99.90
22081;DHT22;11207;59.512;18.050;2023-12-20T13:51:12;1.30;99.90
22081;DHT22;11207;59.512;18.050;2023-12-20T13:53:38;1.40;99.90
22081;DHT22;11207;59.512;18.050;2023-12-20T13:56:04;1.30;99.90
22081;DHT22;11207;59.512;18.050;2023-12-20T13:58:30;1.30;99.90
22081;DHT22;11207;59.512;18.050;2023-12-20T14:00:56;1.30;99.90
22081;DHT22;11207;59.512;18.050;2023-12-20T14:03:21;1.40;99.90
22081;DHT22;11207;59.512;18.050;2023-12-20T14:05:47;1.40;99.90
22081;DHT22;11207;59.512;18.050;2023-12-20T14:08:13;1.30;99.90
22081;DHT22;11207;59.512;18.050;2023-12-20T14:10:38;1.30;99.90
22081;DHT22;11207;59.512;18.050;2023-12-20T14:13:04;1.30;99.90
22081;DHT22;11207;59.512;18.050;2023-12-20T14:15:31;1.30;99.90
22081;DHT22;11207;59.512;18.050;2023-12-20T14:18:05;1.40;99.90
22081;DHT22;11207;59.512;18.050;2023-12-20T14:20:34;1.40;99.90
22081;DHT22;11207;59.512;18.050;2023-12-20T14:23:03;1.40;99.90
22081;DHT22;11207;59.512;18.050;2023-12-20T14:25:29;1.30;99.90
22081;DHT22;11207;59.512;18.050;2023-12-20T14:27:56;1.40;99.90
22081;DHT22;11207;59.512;18.050;2023-12-20T14:30:21;1.40;99.90
22081;DHT22;11207;59.512;18.050;2023-12-20T14:32:47;1.40;99.90
22081;DHT22;11207;59.512;18.050;2023-12-20T14:35:14;1.40;99.90
22081;DHT22;11207;59.512;18.050;2023-12-20T14:37:40;1.50;99.90
22081;DHT22;11207;59.512;18.050;2023-12-20T14:40:09;1.40;99.90
22081;DHT22;11207;59.512;18.050;2023-12-20T14:42:40;1.50;99.90
22081;DHT22;11207;59.512;18.050;2023-12-20T14:45:06;1.40;99.90
22081;DHT22;11207;59.512;18.050;2023-12-20T14:47:32;1.40;99.90
22081;DHT22;11207;59.512;18.050;2023-12-20T14:49:58;1.40;99.90
22081;DHT22;11207;59.512;18.050;2023-12-20T14:52:23;1.40;99.90
22081;DHT22;11207;59.512;18.050;2023-12-20T14:54:49;1.40;99.90
22081;DHT22;11207;59.512;18.050;2023-12-20T14:57:15;1.40;99.90
22081;DHT22;11207;59.512;18.050;2023-12-20T14:59:40;1.40;99.90
22081;DHT22;11207;59.512;18.050;2023-12-20T15:02:06;1.40;99.90
22081;DHT22;11207;59.512;18.050;2023-12-20T15:04:32;1.40;99.90
22081;DHT22;11207;59.512;18.050;2023-12-20T15:06:57;1.40;99.90
22081;DHT22;11207;59.512;18.050;2023-12-20T15:09:23;1.40;99.90
22081;DHT22;11207;59.512;18.050;2023-12-20T15:11:50;1.40;99.90
22081;DHT22;11207;59.512;18.050;2023-12-20T15:14:16;1.40;99.90
22081;DHT22;11207;59.512;18.050;2023-12-20T15:16:47;1.40;99.90
22081;DHT22;11207;59.512;18.050;2023-12-20T15:19:13;1.50;99.90
22081;DHT22;11207;59.512;18.050;2023-12-20T15:21:39;1.40;99.90
22081;DHT22;11207;59.512;18.050;2023-12-20T15:24:09;1.40;99.90